Time;durP1;ratioP1;P1;durP2;ratioP2;P2;SDS_P1;SDS_P2;PMS_P1;PMS_P2;Temp;Humidity;BMP_temperature;BMP_pressure;BME280_temperature;BME280_humidity;BME280_pressure;Samples;Min_cycle;Max_cycle;Signal;HPM_P1;HPM_P2
2022/12/12 00:01:34;;;;;;;14.28;8.55;;;;;;;9.31;86.62;99618.73;1599997;89;20907;-92
2022/12/12 00:04:02;;;;;;;11.22;7.67;;;;;;;9.31;86.67;99610.89;1613603;87;21370;-92
2022/12/12 00:06:29;;;;;;;12.37;7.03;;;;;;;9.30;86.32;99616.25;1613135;88;20930;-91
2022/12/12 00:08:58;;;;;;;16.12;8.18;;;;;;;9.28;86.34;99607.19;1613269;89;20910;-93
2022/12/12 00:11:24;;;;;;;12.43;8.30;;;;;;;9.28;86.04;99619.45;1613093;87;21492;-92
2022/12/12 00:13:53;;;;;;;15.28;8.50;;;;;;;9.27;86.02;99615.14;1613458;89;21414;-91
2022/12/12 00:16:23;;;;;;;13.43;8.88;;;;;;;9.27;86.09;99615.14;1609638;87;21144;-91
2022/12/12 00:18:52;;;;;;;10.23;7.83;;;;;;;9.26;85.79;99615.62;1615781;86;20938;-89
2022/12/12 00:21:23;;;;;;;13.32;7.65;;;;;;;9.23;85.62;99604.08;1614966;89;20982;-89
2022/12/12 00:23:50;;;;;;;14.53;8.35;;;;;;;9.21;85.42;99618.22;1614406;89;20974;-90
2022/12/12 00:26:21;;;;;;;11.57;7.20;;;;;;;9.18;85.47;99629.73;1609565;88;21114;-91
2022/12/12 00:28:47;;;;;;;12.47;6.97;;;;;;;9.17;85.48;99611.05;1614296;89;21239;-89
2022/12/12 00:31:14;;;;;;;14.65;9.05;;;;;;;9.16;85.40;99621.60;1608612;89;21006;-90
2022/12/12 00:33:43;;;;;;;14.83;8.05;;;;;;;9.12;85.42;99605.31;1612955;89;20950;-91
2022/12/12 00:36:10;;;;;;;13.58;7.83;;;;;;;9.12;85.52;99613.16;1608063;88;20935;-92
2022/12/12 00:38:36;;;;;;;11.63;7.33;;;;;;;9.12;85.52;99610.06;1612988;89;20997;-92
2022/12/12 00:41:04;;;;;;;9.85;7.90;;;;;;;9.12;85.35;99613.98;1612887;89;21155;-94
2022/12/12 00:43:32;;;;;;;12.15;7.12;;;;;;;9.10;85.38;99626.81;1613359;89;20883;-91
2022/12/12 00:46:00;;;;;;;12.60;7.37;;;;;;;9.09;85.45;99619.89;1608281;88;20970;-91
2022/12/12 00:48:28;;;;;;;13.85;8.70;;;;;;;9.12;85.67;99622.31;1612877;89;20907;-93
2022/12/12 00:50:55;;;;;;;12.73;8.38;;;;;;;9.14;85.57;99634.81;1597339;87;21523;-92
2022/12/12 00:53:22;;;;;;;12.45;8.73;;;;;;;9.15;85.41;99631.23;1635862;87;21176;-92
2022/12/12 00:55:56;;;;;;;13.18;8.33;;;;;;;9.17;85.15;99628.52;1613059;89;20944;-91
2022/12/12 00:58:24;;;;;;;10.85;7.72;;;;;;;9.18;85.03;99627.12;1635494;87;21013;-93
2022/12/12 01:00:50;;;;;;;11.00;8.00;;;;;;;9.19;84.96;99636.63;1612985;89;20967;-94
2022/12/12 01:03:17;;;;;;;13.45;7.83;;;;;;;9.22;84.98;99636.88;1637891;86;20919;-94
2022/12/12 01:05:45;;;;;;;11.75;7.62;;;;;;;9.23;84.90;99635.95;1636730;86;21220;-93
2022/12/12 01:08:11;;;;;;;14.78;8.45;;;;;;;9.24;84.85;99618.81;1612944;89;20971;-91
2022/12/12 01:10:38;;;;;;;13.32;8.75;;;;;;;9.23;84.66;99630.72;1635572;86;20959;-94
2022/12/12 01:13:05;;;;;;;12.70;7.70;;;;;;;9.23;84.64;99628.10;1612972;89;21570;-89
2022/12/12 01:15:32;;;;;;;15.18;8.90;;;;;;;9.24;84.68;99619.30;1635505;86;20919;-92
2022/12/12 01:17:59;;;;;;;11.10;7.95;;;;;;;9.24;84.71;99620.13;1615171;86;21163;-92
2022/12/12 01:20:26;;;;;;;12.93;8.00;;;;;;;9.23;84.94;99626.80;1638040;86;20983;-92
2022/12/12 01:22:53;;;;;;;17.40;8.40;;;;;;;9.21;85.05;99625.58;1637975;86;20924;-92
2022/12/12 01:25:20;;;;;;;16.60;8.58;;;;;;;9.20;85.12;99624.38;1637797;86;20971;-91
2022/12/12 01:27:47;;;;;;;13.88;8.23;;;;;;;9.21;85.22;99617.73;1615412;86;20990;-92
2022/12/12 01:30:15;;;;;;;13.08;7.92;;;;;;;9.23;85.20;99628.10;1637417;86;23021;-91
2022/12/12 01:32:42;;;;;;;19.15;7.92;;;;;;;9.23;85.24;99621.56;1636827;87;20947;-92
2022/12/12 01:35:09;;;;;;;13.32;7.72;;;;;;;9.19;85.34;99611.77;1595920;86;20942;-92
2022/12/12 01:37:38;;;;;;;13.95;8.45;;;;;;;9.22;85.41;99618.56;1638369;86;21003;-94
2022/12/12 01:40:08;;;;;;;15.32;8.73;;;;;;;9.22;85.30;99613.33;1636546;87;21034;-92
2022/12/12 01:42:35;;;;;;;12.23;7.58;;;;;;;9.21;85.39;99631.30;1613197;89;21532;-94
2022/12/12 01:45:02;;;;;;;17.23;8.83;;;;;;;9.24;85.21;99625.36;1635636;86;21400;-92
2022/12/12 01:47:29;;;;;;;13.95;9.33;;;;;;;9.23;85.18;99626.80;1635682;86;21448;-93
2022/12/12 01:50:05;;;;;;;13.98;7.90;;;;;;;9.23;85.01;99618.95;1635713;86;20967;-91
2022/12/12 01:52:40;;;;;;;11.53;7.15;;;;;;;9.24;85.10;99623.22;1591510;88;20893;-91
2022/12/12 01:55:09;;;;;;;12.37;8.15;;;;;;;9.22;85.23;99625.11;1618627;88;21244;-94
2022/12/12 01:57:40;;;;;;;14.55;8.33;;;;;;;9.20;85.35;99623.89;1578381;88;21073;-92
2022/12/12 02:00:09;;;;;;;14.03;8.73;;;;;;;9.22;85.25;99616.77;1619028;88;20966;-94
2022/12/12 02:02:36;;;;;;;10.23;7.78;;;;;;;9.23;85.09;99624.17;1625184;88;20924;-92
2022/12/12 02:05:08;;;;;;;9.68;7.17;;;;;;;9.26;85.12;99621.33;1621687;88;20991;-94
2022/12/12 02:07:36;;;;;;;13.60;7.80;;;;;;;9.26;84.99;99621.33;1626599;88;21294;-92
2022/12/12 02:10:03;;;;;;;13.10;8.18;;;;;;;9.28;84.86;99619.45;1596196;88;20943;-91
2022/12/12 02:13:41;;;;;;;16.37;8.28;;;;;;;9.32;84.93;99618.29;1887068;75;22261;-94
2022/12/12 02:16:38;;;;;;;13.00;9.05;;;;;;;9.27;84.96;99630.39;1862738;77;21197;-92
2022/12/12 02:19:42;;;;;;;18.85;8.10;;;;;;;9.27;85.00;99617.75;1856623;77;21107;-92
2022/12/12 02:22:46;;;;;;;10.48;7.15;;;;;;;9.26;85.09;99612.17;1857055;77;20925;-92
2022/12/12 02:25:36;;;;;;;13.32;7.37;;;;;;;9.24;85.10;99621.43;1856960;77;20783;-93
2022/12/12 02:28:42;;;;;;;15.75;8.38;;;;;;;9.24;85.22;99620.13;1854913;77;20989;-91
2022/12/12 02:31:20;;;;;;;16.12;8.20;;;;;;;9.25;85.33;99628.35;1855636;77;20987;-91
2022/12/12 02:34:26;;;;;;;11.00;7.33;;;;;;;9.26;85.23;99630.01;1857469;77;21265;-90
2022/12/12 02:37:04;;;;;;;15.28;7.83;;;;;;;9.25;85.24;99634.89;1856832;76;20925;-91
2022/12/12 02:39:58;;;;;;;14.05;8.18;;;;;;;9.27;84.96;99632.14;1856507;77;20983;-91
2022/12/12 02:42:43;;;;;;;13.60;7.83;;;;;;;9.27;85.07;99638.69;1856927;77;20874;-93
2022/12/12 02:45:38;;;;;;;11.70;7.67;;;;;;;9.29;84.96;99646.82;1856760;77;21165;-92
2022/12/12 02:48:16;;;;;;;11.33;8.48;;;;;;;9.32;85.01;99637.91;1855710;77;21425;-92
2022/12/12 02:50:48;;;;;;;15.20;7.92;;;;;;;9.33;84.86;99628.63;1852652;77;21038;-92
2022/12/12 02:53:19;;;;;;;14.63;8.20;;;;;;;9.36;84.77;99635.45;1854101;76;21351;-92
2022/12/12 02:55:46;;;;;;;13.53;7.55;;;;;;;9.39;84.60;99631.77;1854129;76;20889;-92
2022/12/12 02:58:14;;;;;;;11.28;7.53;;;;;;;9.39;84.55;99636.53;1854169;77;20894;-93
2022/12/12 03:01:09;;;;;;;12.82;7.90;;;;;;;9.39;84.73;99623.45;1854359;77;21846;-95
2022/12/12 03:10:01;;;;;;;17.95;8.95;;;;;;;9.32;85.75;99626.14;1856713;77;20905;-92
2022/12/12 03:12:41;;;;;;;16.95;8.60;;;;;;;9.33;86.02;99634.34;1836875;77;20867;-94
2022/12/12 03:15:21;;;;;;;15.45;7.80;;;;;;;9.27;86.47;99623.85;1829103;78;21951;-94
2022/12/12 03:18:02;;;;;;;12.23;8.38;;;;;;;9.24;87.12;99633.68;1829232;78;20934;-94
2022/12/12 03:20:38;;;;;;;12.23;8.63;;;;;;;9.20;87.20;99621.28;1829272;78;20839;-92
2022/12/12 03:23:13;;;;;;;16.05;9.43;;;;;;;9.20;87.39;99619.97;1820357;77;20835;31
2022/12/12 03:26:07;;;;;;;12.47;9.00;;;;;;;9.18;87.33;99608.81;1710513;82;20808;-90
2022/12/12 03:28:39;;;;;;;12.68;7.30;;;;;;;9.16;87.28;99609.39;1738509;78;21154;-93
2022/12/12 03:31:09;;;;;;;17.90;7.67;;;;;;;9.07;87.39;99610.86;1719649;79;20833;-94
2022/12/12 03:33:51;;;;;;;10.82;8.23;;;;;;;9.09;87.65;99617.27;1691330;84;20873;-93
2022/12/12 03:36:40;;;;;;;15.93;8.75;;;;;;;9.05;87.77;99611.44;1691390;84;20979;-91
2022/12/12 03:39:26;;;;;;;13.88;8.13;;;;;;;9.04;87.85;99608.44;1710788;82;20880;-94
2022/12/12 03:42:06;;;;;;;14.78;8.23;;;;;;;9.01;87.88;99590.84;1710649;82;21131;-92
2022/12/12 03:44:39;;;;;;;13.70;8.73;;;;;;;9.01;87.80;99585.61;1709553;82;20998;-92
2022/12/12 03:47:11;;;;;;;15.30;7.60;;;;;;;8.96;87.97;99583.33;1690967;82;21384;-91
2022/12/12 03:50:01;;;;;;;15.03;8.93;;;;;;;8.93;88.29;99592.67;1710023;82;20995;-93
2022/12/12 03:52:57;;;;;;;11.70;7.80;;;;;;;8.95;88.77;99589.95;1710234;82;20911;-95
2022/12/12 03:55:35;;;;;;;14.05;8.48;;;;;;;8.96;89.09;99600.32;1710388;82;21146;-93
2022/12/12 03:58:12;;;;;;;21.27;9.13;;;;;;;8.90;89.50;99597.64;1673522;83;21093;-92
2022/12/12 04:04:06;;;;;;;12.23;8.05;;;;;;;8.77;90.16;99596.83;1738361;80;20909;-94
2022/12/12 04:06:37;;;;;;;12.37;8.18;;;;;;;8.67;90.69;99592.71;1730123;81;20971;-94
2022/12/12 04:15:39;;;;;;;17.52;10.40;;;;;;;8.58;91.43;99578.97;1733572;81;21444;-94
2022/12/12 04:19:02;;;;;;;16.62;9.20;;;;;;;8.56;91.72;99592.61;1737016;81;20943;-95
2022/12/12 04:24:46;;;;;;;14.75;9.13;;;;;;;8.62;91.99;99600.48;1730971;82;20072;-92
2022/12/12 04:30:23;;;;;;;17.98;9.33;;;;;;;8.63;92.00;99592.55;1738131;78;21173;31
2022/12/12 04:36:01;;;;;;;11.22;8.98;;;;;;;8.63;91.96;99584.71;1746161;77;21016;-93
2022/12/12 04:41:22;;;;;;;15.08;9.78;;;;;;;8.64;91.83;99590.29;1758360;79;20839;-94
2022/12/12 04:43:58;;;;;;;12.70;8.68;;;;;;;8.67;91.80;99584.02;1775816;79;21429;-95
2022/12/12 04:46:27;;;;;;;15.18;10.15;;;;;;;8.66;91.92;99592.81;1775614;81;20936;-96
2022/12/12 04:48:58;;;;;;;15.75;10.13;;;;;;;8.66;91.97;99602.78;1775519;81;20965;-95
2022/12/12 04:51:35;;;;;;;14.53;9.78;;;;;;;8.64;92.04;99603.83;1774751;80;21914;-94
2022/12/12 04:54:20;;;;;;;18.15;9.88;;;;;;;8.63;92.06;99616.55;1775433;80;20944;-93
2022/12/12 04:56:52;;;;;;;12.85;8.90;;;;;;;8.64;92.06;99602.05;1775616;80;20894;-89
2022/12/12 04:59:18;;;;;;;15.38;10.15;;;;;;;8.64;92.13;99598.13;1775453;80;20883;-91
2022/12/12 05:01:56;;;;;;;15.28;10.03;;;;;;;8.63;92.25;99595.16;1774250;80;20921;-93
2022/12/12 05:05:07;;;;;;;12.85;8.98;;;;;;;8.66;92.31;99583.66;1775133;80;21892;-95
2022/12/12 05:07:39;;;;;;;14.87;9.75;;;;;;;8.65;92.25;99589.36;1727301;81;20909;-91
2022/12/12 05:10:12;;;;;;;14.75;9.73;;;;;;;8.63;92.26;99577.34;1752297;81;20965;-93
2022/12/12 05:12:45;;;;;;;16.57;10.45;;;;;;;8.60;92.44;99585.38;1753116;81;20909;-94
2022/12/12 05:15:13;;;;;;;15.35;10.75;;;;;;;8.63;92.48;99599.09;1753006;81;21708;-93
2022/12/12 05:20:44;;;;;;;14.83;9.25;;;;;;;8.65;92.61;99591.15;1781697;80;20954;-92
2022/12/12 05:23:11;;;;;;;15.43;9.83;;;;;;;8.67;92.56;99592.71;1756237;80;20935;-91
2022/12/12 05:25:38;;;;;;;13.68;9.55;;;;;;;8.69;92.64;99585.60;1781343;80;20991;-96
2022/12/12 05:28:05;;;;;;;16.57;10.55;;;;;;;8.73;92.60;99587.52;1756909;80;20939;-92
2022/12/12 05:30:31;;;;;;;12.90;8.75;;;;;;;8.77;92.44;99590.77;1784497;79;21210;-93
2022/12/12 05:33:03;;;;;;;15.63;9.53;;;;;;;8.75;92.19;99584.33;1807765;79;20928;-92
2022/12/12 05:35:29;;;;;;;15.25;10.50;;;;;;;8.76;92.10;99588.63;1808190;79;20912;-92
2022/12/12 05:37:56;;;;;;;13.65;9.25;;;;;;;8.76;92.33;99593.86;1808006;77;20927;-93
2022/12/12 05:40:22;;;;;;;16.65;9.50;;;;;;;8.77;92.32;99590.29;1808683;77;21036;-94
2022/12/12 05:42:50;;;;;;;18.10;9.83;;;;;;;8.78;92.21;99593.28;1808585;77;21227;-93
2022/12/12 05:45:17;;;;;;;17.27;9.95;;;;;;;8.79;92.25;99589.71;1808222;77;20983;-92
2022/12/12 05:47:43;;;;;;;13.62;9.98;;;;;;;8.80;92.12;99578.30;1806544;79;20960;-93
2022/12/12 05:50:12;;;;;;;14.95;9.65;;;;;;;8.83;91.95;99585.95;1807675;77;20916;-92
2022/12/12 05:52:38;;;;;;;17.10;10.35;;;;;;;8.84;91.70;99584.99;1807578;77;20991;-93
2022/12/12 05:55:06;;;;;;;16.37;10.70;;;;;;;8.83;91.70;99585.12;1806200;79;20888;-94
2022/12/12 05:57:35;;;;;;;17.15;10.32;;;;;;;8.84;91.69;99585.47;1805845;79;20884;-91
2022/12/12 06:00:03;;;;;;;18.67;10.28;;;;;;;8.87;91.67;99580.88;1805730;79;20919;-92
2022/12/12 06:02:31;;;;;;;16.15;10.70;;;;;;;8.85;91.55;99590.60;1805934;79;20932;-92
2022/12/12 06:04:58;;;;;;;16.73;9.85;;;;;;;8.85;91.55;99584.06;1806003;78;20999;-92
2022/12/12 06:07:25;;;;;;;17.73;10.75;;;;;;;8.88;91.22;99583.84;1805901;79;21173;-94
2022/12/12 06:09:51;;;;;;;15.70;8.78;;;;;;;8.89;91.14;99584.67;1806239;79;20959;-95
2022/12/12 06:12:18;;;;;;;13.15;9.28;;;;;;;8.89;91.05;99588.14;1805354;79;21452;-90
2022/12/12 06:14:44;;;;;;;15.28;10.63;;;;;;;8.91;91.16;99574.95;1805993;79;20991;-91
2022/12/12 06:17:11;;;;;;;15.03;10.55;;;;;;;8.95;91.15;99576.88;1805723;79;20878;-92
2022/12/12 06:19:37;;;;;;;15.75;10.68;;;;;;;8.98;90.99;99585.36;1808173;78;21342;-91
2022/12/12 06:22:04;;;;;;;16.67;9.58;;;;;;;8.99;90.54;99583.09;1811064;79;20892;-92
2022/12/12 06:24:32;;;;;;;15.85;10.43;;;;;;;9.02;90.43;99599.87;1811862;79;21381;-96
2022/12/12 06:26:59;;;;;;;19.35;10.60;;;;;;;9.03;90.18;99588.96;1812584;79;20900;-94
2022/12/12 06:29:32;;;;;;;15.78;10.03;;;;;;;9.02;90.14;99586.80;1812684;79;20853;-93
2022/12/12 06:31:59;;;;;;;15.63;10.60;;;;;;;9.01;90.44;99575.98;1813765;78;21098;-90
2022/12/12 06:34:28;;;;;;;13.00;9.95;;;;;;;8.97;90.33;99581.06;1813538;77;20940;-93
2022/12/12 06:36:55;;;;;;;16.23;10.50;;;;;;;8.94;90.59;99591.74;1813749;77;20893;-93
2022/12/12 06:39:24;;;;;;;15.98;10.38;;;;;;;8.94;90.45;99591.74;1791909;77;20939;-94
2022/12/12 06:41:56;;;;;;;19.32;9.15;;;;;;;8.96;90.47;99595.09;1788188;79;20848;-93
2022/12/12 06:44:22;;;;;;;15.38;9.68;;;;;;;8.98;90.20;99593.66;1788667;80;22361;-93
2022/12/12 06:46:52;;;;;;;17.12;10.10;;;;;;;9.02;90.21;99589.88;1788249;79;20938;-92
2022/12/12 06:49:23;;;;;;;14.85;12.35;;;;;;;9.03;89.93;99591.58;1788249;79;20860;-92
2022/12/12 06:51:52;;;;;;;16.15;11.12;;;;;;;9.04;89.77;99599.77;1788277;79;20937;-90
2022/12/12 06:54:25;;;;;;;18.92;11.05;;;;;;;9.06;89.72;99583.02;1787561;80;20884;-94
2022/12/12 06:56:53;;;;;;;14.30;10.28;;;;;;;9.12;89.24;99619.22;1788239;79;21225;-93
2022/12/12 06:59:21;;;;;;;17.00;9.85;;;;;;;9.17;89.16;99650.76;1787864;80;20915;-94
2022/12/12 07:01:58;;;;;;;15.53;11.70;;;;;;;9.18;88.89;99645.88;1788820;79;21018;-94
2022/12/12 07:04:25;;;;;;;18.48;10.70;;;;;;;9.14;88.89;99626.97;1788461;79;21528;-93
2022/12/12 07:06:54;;;;;;;20.60;12.63;;;;;;;9.12;89.03;99636.22;1787567;80;20912;-89
2022/12/12 07:09:21;;;;;;;14.33;10.30;;;;;;;9.11;88.99;99622.78;1789416;80;21226;-91
2022/12/12 07:11:47;;;;;;;18.27;12.60;;;;;;;9.12;88.87;99630.98;1788927;79;20864;-93
2022/12/12 07:14:14;;;;;;;19.60;11.83;;;;;;;9.14;88.89;99619.12;1789422;79;20852;-92
2022/12/12 07:16:43;;;;;;;15.83;11.85;;;;;;;9.18;88.96;99623.20;1788884;79;20955;-94
2022/12/12 07:19:10;;;;;;;22.10;15.40;;;;;;;9.18;88.86;99624.50;1789158;79;20991;-95
2022/12/12 07:21:38;;;;;;;25.72;17.32;;;;;;;9.19;89.07;99616.17;1789442;79;21132;-95
2022/12/12 07:24:05;;;;;;;22.65;13.35;;;;;;;9.17;88.93;99621.98;1789149;79;20911;-93
2022/12/12 07:26:34;;;;;;;22.48;14.55;;;;;;;9.16;88.83;99615.06;1789501;79;20888;-92
2022/12/12 07:29:04;;;;;;;14.23;10.35;;;;;;;9.16;88.67;99622.91;1789388;79;20892;-90
2022/12/12 07:31:29;;;;;;;24.00;12.18;;;;;;;9.16;88.48;99615.06;1789352;79;20939;-91
2022/12/12 07:33:58;;;;;;;16.97;11.78;;;;;;;9.16;88.42;99608.52;1788901;79;21479;-92
2022/12/12 07:36:27;;;;;;;14.45;10.43;;;;;;;9.17;88.53;99618.06;1755322;80;20831;-91
2022/12/12 07:39:20;;;;;;;17.20;11.57;;;;;;;9.19;88.31;99614.39;1768812;78;20877;31
2022/12/12 07:41:49;;;;;;;18.65;11.20;;;;;;;9.24;88.37;99637.61;1708408;80;21586;-94
2022/12/12 07:44:20;;;;;;;19.35;11.68;;;;;;;9.29;88.34;99633.73;1780488;79;21022;-93
2022/12/12 07:46:55;;;;;;;17.80;12.68;;;;;;;9.28;88.09;99642.52;1750195;80;21159;31
2022/12/12 07:49:26;;;;;;;19.42;13.05;;;;;;;9.26;88.10;99645.70;1731326;82;20860;-94
2022/12/12 07:51:58;;;;;;;20.72;12.63;;;;;;;9.22;88.10;99644.72;1711613;80;22305;-91
2022/12/12 07:54:27;;;;;;;15.90;12.05;;;;;;;9.19;88.28;99660.64;1710473;79;21145;-91
2022/12/12 07:57:00;;;;;;;16.75;11.65;;;;;;;9.15;88.35;99658.70;1700309;80;20838;-94
2022/12/12 07:59:27;;;;;;;18.52;11.12;;;;;;;9.18;88.43;99649.80;1737482;78;21159;-89
2022/12/12 08:01:58;;;;;;;18.73;12.70;;;;;;;9.17;88.33;99647.66;1681689;82;20976;-93
2022/12/12 08:04:28;;;;;;;18.10;11.83;;;;;;;9.17;88.18;99649.45;1735413;79;20923;-95
2022/12/12 08:06:56;;;;;;;19.95;11.78;;;;;;;9.13;87.93;99638.35;1756540;77;21212;-89
2022/12/12 08:09:28;;;;;;;16.00;11.48;;;;;;;9.11;88.03;99629.33;1721549;81;20947;-93
2022/12/12 11:39:30;;;;;;;7.85;5.67;;;;;;;8.59;99.73;99539.30;1839764;76;20866;-87
2022/12/12 11:42:07;;;;;;;5.42;4.62;;;;;;;8.58;99.66;99538.47;1845701;76;21139;-88
2022/12/12 11:44:37;;;;;;;8.15;4.72;;;;;;;8.59;99.53;99537.99;1836454;76;20906;-86
2022/12/12 11:47:27;;;;;;;5.90;4.65;;;;;;;8.57;99.12;99526.80;1845500;76;21485;-86
2022/12/12 11:49:58;;;;;;;7.33;4.15;;;;;;;8.57;99.04;99528.11;1815426;76;21004;-88
2022/12/12 11:52:31;;;;;;;5.90;3.70;;;;;;;8.57;98.89;99538.09;1838957;76;21538;-87
2022/12/12 11:54:58;;;;;;;5.78;4.55;;;;;;;8.58;98.81;99531.08;1853960;76;21130;-89
2022/12/12 11:58:04;;;;;;;5.17;4.55;;;;;;;8.59;98.64;99536.20;1823639;77;20872;-91
2022/12/12 12:00:48;;;;;;;5.08;3.77;;;;;;;8.58;98.53;99536.30;1813037;76;20903;-89
2022/12/12 12:03:36;;;;;;;5.72;3.92;;;;;;;8.60;98.35;99531.80;1823740;77;21006;-89
2022/12/12 12:06:57;;;;;;;4.67;3.77;;;;;;;8.60;98.19;99536.55;1814091;77;20930;-87
2022/12/12 12:09:35;;;;;;;6.12;4.42;;;;;;;8.63;98.16;99540.77;1834817;77;21225;-87
2022/12/12 12:12:13;;;;;;;5.28;4.03;;;;;;;8.62;97.99;99536.45;1819900;77;21551;-87
2022/12/12 12:15:01;;;;;;;5.03;4.25;;;;;;;8.66;98.14;99541.84;1826855;77;20973;-88
2022/12/12 12:17:43;;;;;;;6.40;4.78;;;;;;;8.68;97.97;99535.56;1820652;77;20958;-87
2022/12/12 12:20:31;;;;;;;6.35;4.78;;;;;;;8.70;97.76;99540.69;1825689;77;21290;-89
2022/12/12 12:23:06;;;;;;;4.67;3.92;;;;;;;8.67;97.62;99536.52;1824435;77;21148;-87
2022/12/12 12:25:45;;;;;;;7.28;6.12;;;;;;;8.68;97.58;99527.72;1835082;77;20942;-90
2022/12/12 12:28:49;;;;;;;5.62;4.40;;;;;;;8.68;97.56;99528.20;1845815;77;20936;-89
2022/12/12 12:31:30;;;;;;;6.95;6.25;;;;;;;8.67;97.62;99527.38;1815054;77;21472;-87
2022/12/12 12:34:19;;;;;;;7.22;5.10;;;;;;;8.70;97.56;99536.77;1829576;77;20900;-86
2022/12/12 12:37:16;;;;;;;5.72;5.10;;;;;;;8.68;97.71;99536.87;1835164;77;21117;-87
2022/12/12 12:40:15;;;;;;;8.90;6.17;;;;;;;8.72;97.72;99545.34;1810636;77;20987;-87
2022/12/12 12:43:19;;;;;;;10.05;6.20;;;;;;;8.74;97.55;99539.55;1822133;77;21043;-87
2022/12/12 12:45:56;;;;;;;9.30;6.35;;;;;;;8.75;97.41;99548.21;1817552;77;20892;-88
2022/12/12 12:48:31;;;;;;;7.87;6.65;;;;;;;8.73;97.36;99550.09;1831835;77;20970;-87
2022/12/12 12:51:07;;;;;;;7.53;5.70;;;;;;;8.74;97.15;99553.05;1801582;77;21113;-88
2022/12/12 12:54:01;;;;;;;7.45;5.80;;;;;;;8.72;97.12;99550.58;1815146;77;20950;-87
2022/12/12 12:56:31;;;;;;;8.33;5.70;;;;;;;8.70;97.24;99545.92;1833447;77;21112;-86
2022/12/12 12:59:01;;;;;;;9.95;7.47;;;;;;;8.69;97.48;99559.47;1817322;77;21070;-86
2022/12/12 13:01:40;;;;;;;6.83;5.87;;;;;;;8.69;97.58;99562.53;1824158;77;20963;-88
2022/12/12 13:04:17;;;;;;;8.58;5.92;;;;;;;8.71;97.86;99575.02;1845630;77;21233;-86
2022/12/12 13:06:58;;;;;;;8.83;6.47;;;;;;;8.70;97.99;99575.50;1832960;77;20840;-87
2022/12/12 13:09:39;;;;;;;7.22;6.05;;;;;;;8.72;98.04;99578.02;1842750;77;20956;-88
2022/12/12 13:12:26;;;;;;;5.83;5.33;;;;;;;8.72;98.01;99581.94;1838187;77;20876;-87
2022/12/12 13:14:58;;;;;;;6.08;5.45;;;;;;;8.71;98.25;99585.47;1830809;76;21165;-86
2022/12/12 13:17:56;;;;;;;8.73;5.12;;;;;;;8.73;98.32;99593.22;1839048;76;21122;-87
2022/12/12 13:20:24;;;;;;;6.05;4.72;;;;;;;8.74;98.34;99599.66;1838799;77;21002;-88
2022/12/12 13:23:46;;;;;;;9.48;6.65;;;;;;;8.72;98.31;99601.54;1837203;77;20963;-88
2022/12/12 13:26:27;;;;;;;7.17;5.12;;;;;;;8.68;98.41;99604.82;1820183;77;20892;-87
2022/12/12 13:29:01;;;;;;;6.35;4.72;;;;;;;8.65;98.77;99602.91;1827490;77;20948;-89
2022/12/12 13:32:02;;;;;;;5.50;3.87;;;;;;;8.62;98.86;99603.10;1819731;77;21118;-89
2022/12/12 13:34:29;;;;;;;5.37;3.55;;;;;;;8.60;99.05;99608.42;1809797;77;20911;-90
2022/12/12 13:36:56;;;;;;;4.85;3.65;;;;;;;8.65;99.36;99621.20;1812378;77;20912;-87
2022/12/12 13:39:30;;;;;;;8.58;5.85;;;;;;;8.66;99.21;99617.63;1817952;77;21090;-89
2022/12/12 13:42:09;;;;;;;10.58;5.12;;;;;;;8.67;99.14;99626.69;1837263;77;20975;-87
2022/12/12 13:44:47;;;;;;;9.15;5.70;;;;;;;8.67;99.01;99631.91;1812184;77;21803;-90
2022/12/12 13:47:27;;;;;;;13.30;7.20;;;;;;;8.69;99.18;99635.27;1837261;77;20955;-89
2022/12/12 13:50:11;;;;;;;9.90;5.40;;;;;;;8.72;99.31;99638.13;1812975;77;20955;-90
2022/12/12 13:52:41;;;;;;;11.45;5.08;;;;;;;8.74;99.28;99637.56;1822068;77;20935;-90
2022/12/12 13:55:17;;;;;;;5.35;4.10;;;;;;;8.74;99.24;99646.71;1810843;77;21393;-90
2022/12/12 13:58:09;;;;;;;7.03;4.90;;;;;;;8.75;99.13;99648.84;1808364;77;21848;-89
2022/12/12 14:00:35;;;;;;;5.53;4.10;;;;;;;8.73;98.85;99645.02;1829960;77;21019;-91
2022/12/12 14:03:24;;;;;;;4.92;4.42;;;;;;;8.71;98.75;99650.37;1840590;77;21015;-90
2022/12/12 14:05:52;;;;;;;6.35;4.17;;;;;;;8.70;98.85;99646.55;1836603;77;21165;-89
2022/12/12 14:08:30;;;;;;;8.45;5.55;;;;;;;8.66;98.90;99651.13;1837884;77;21523;-90
2022/12/12 14:11:00;;;;;;;8.43;5.62;;;;;;;8.67;99.12;99651.96;1824869;77;21128;-91
2022/12/12 14:13:43;;;;;;;10.40;6.47;;;;;;;8.68;99.23;99654.95;1804993;77;20971;-89
2022/12/12 14:16:17;;;;;;;8.23;5.20;;;;;;;8.71;99.18;99654.74;1807058;77;20955;-91
2022/12/12 14:19:04;;;;;;;5.35;4.55;;;;;;;8.71;99.03;99658.66;1823706;77;20932;-90
2022/12/12 14:21:43;;;;;;;6.83;4.65;;;;;;;8.70;99.06;99650.47;1819913;77;20953;-90
2022/12/12 14:24:36;;;;;;;8.78;5.03;;;;;;;8.68;99.12;99657.09;1807345;77;21162;-90
2022/12/12 14:27:08;;;;;;;7.53;5.62;;;;;;;8.66;99.04;99658.14;1825582;77;21396;-89
2022/12/12 14:29:41;;;;;;;8.70;5.20;;;;;;;8.67;99.16;99667.64;1806640;77;20923;-91
2022/12/12 14:32:16;;;;;;;5.40;4.90;;;;;;;8.67;99.08;99668.95;1834318;77;21508;-90
2022/12/12 14:35:14;;;;;;;6.12;4.92;;;;;;;8.65;99.09;99674.30;1832688;77;20963;-89
2022/12/12 14:38:14;;;;;;;7.85;6.08;;;;;;;8.64;99.05;99673.92;1815525;77;21246;-88
2022/12/12 14:40:46;;;;;;;7.95;6.72;;;;;;;8.65;99.02;99681.31;1824792;77;20884;-90
2022/12/12 14:43:26;;;;;;;6.33;5.53;;;;;;;8.66;99.08;99680.36;1810892;77;21037;-89
2022/12/12 14:45:57;;;;;;;8.75;6.50;;;;;;;8.69;99.21;99678.83;1826831;77;20896;-90
2022/12/12 14:48:33;;;;;;;5.60;4.87;;;;;;;8.70;99.04;99680.05;1837770;77;20943;-89
2022/12/12 14:51:22;;;;;;;6.85;6.05;;;;;;;8.69;98.74;99686.67;1832100;77;21849;-90
2022/12/12 14:53:52;;;;;;;5.60;5.00;;;;;;;8.67;98.51;99688.11;1808283;77;20927;-88
2022/12/12 14:56:33;;;;;;;6.87;5.40;;;;;;;8.65;98.33;99691.77;1817466;77;20936;-91
2022/12/12 14:59:10;;;;;;;7.72;6.95;;;;;;;8.61;98.37;99696.35;1831284;76;21014;-89
2022/12/12 15:01:46;;;;;;;11.25;8.85;;;;;;;8.61;98.56;99705.97;1820835;77;21375;-90
2022/12/12 15:04:26;;;;;;;14.70;11.28;;;;;;;8.60;98.58;99705.11;1835905;77;21073;-88
2022/12/12 15:06:58;;;;;;;15.85;14.00;;;;;;;8.62;98.80;99703.72;1826840;77;20971;-89
2022/12/12 15:09:30;;;;;;;14.78;11.73;;;;;;;8.66;98.89;99714.34;1805182;77;20923;-88
2022/12/12 15:12:14;;;;;;;14.38;11.15;;;;;;;8.68;98.88;99714.59;1825053;77;21011;-90
2022/12/12 15:14:53;;;;;;;11.73;7.50;;;;;;;8.68;98.80;99713.29;1822190;77;20825;-89
2022/12/12 15:17:38;;;;;;;8.90;6.30;;;;;;;8.67;98.70;99723.84;1833264;77;21190;-89
2022/12/12 15:20:08;;;;;;;10.35;7.22;;;;;;;8.65;98.48;99718.73;1839162;77;20955;-89
2022/12/12 15:22:37;;;;;;;5.30;4.67;;;;;;;8.62;98.24;99722.01;1800027;78;20884;-88
2022/12/12 15:25:16;;;;;;;8.83;6.17;;;;;;;8.54;98.04;99725.14;1842509;77;20963;-88
2022/12/12 15:27:44;;;;;;;13.53;8.70;;;;;;;8.49;98.15;99720.67;1816009;77;20922;-89
2022/12/12 15:30:42;;;;;;;12.68;9.08;;;;;;;8.47;98.27;99726.02;1823821;77;21404;-90
2022/12/12 15:33:23;;;;;;;6.90;5.65;;;;;;;8.47;98.22;99727.77;1835127;77;20908;-90
2022/12/12 15:35:56;;;;;;;5.30;4.72;;;;;;;8.47;98.30;99723.84;1840616;77;20979;-90
2022/12/12 15:38:23;;;;;;;6.43;5.33;;;;;;;8.48;98.21;99738.61;1816802;77;20928;-89
2022/12/12 15:40:53;;;;;;;10.25;6.92;;;;;;;8.47;98.17;99740.39;1844029;77;20872;-88
2022/12/12 15:43:23;;;;;;;8.30;6.70;;;;;;;8.47;97.73;99745.61;1830677;77;21247;-89
2022/12/12 15:45:55;;;;;;;4.15;3.75;;;;;;;8.43;96.52;99753.28;1810337;77;21495;-88
2022/12/12 15:48:21;;;;;;;2.52;2.33;;;;;;;8.34;95.17;99763.43;1815710;77;20928;-88
2022/12/12 15:51:01;;;;;;;2.77;1.70;;;;;;;8.13;93.64;99777.41;1827597;77;20959;-90
2022/12/12 15:53:34;;;;;;;1.67;1.50;;;;;;;7.95;93.21;99772.41;1839687;77;21356;-90
2022/12/12 15:56:20;;;;;;;10.38;2.45;;;;;;;7.82;93.16;99779.33;1823375;77;21244;-88
2022/12/12 15:59:10;;;;;;;8.50;2.62;;;;;;;7.74;93.20;99783.73;1827067;77;20999;-88
2022/12/12 16:01:37;;;;;;;10.63;3.17;;;;;;;7.70;92.38;99788.77;1812308;77;20990;-88
2022/12/12 20:23:39;;;;;;;20.68;11.45;;;;;;;4.15;95.74;100075.11;1838260;76;20911;-89
2022/12/12 20:26:12;;;;;;;20.50;12.55;;;;;;;4.21;95.55;100068.37;1835734;77;20930;-89
2022/12/12 20:28:39;;;;;;;20.20;11.40;;;;;;;4.31;95.71;100068.80;1826773;77;20945;-88
2022/12/12 20:31:11;;;;;;;22.67;12.75;;;;;;;4.40;95.13;100067.56;1839793;77;20920;-88